createdAt,value
2022-08-08T00:00:52.595Z,16.40
2022-08-08T00:02:31.394Z,16.30
2022-08-08T00:05:11.685Z,16.30
2022-08-08T00:07:52.799Z,16.10
2022-08-08T00:10:32.249Z,16.10
2022-08-08T00:14:17.314Z,16.10
2022-08-08T00:16:16.278Z,15.90
2022-08-08T00:18:58.885Z,15.90
2022-08-08T00:21:39.711Z,15.90
2022-08-08T00:24:18.323Z,15.90
2022-08-08T00:26:55.995Z,15.90
2022-08-08T00:29:45.572Z,15.90
2022-08-08T00:32:35.233Z,15.90
2022-08-08T00:35:34.280Z,15.90
2022-08-08T00:38:32.106Z,15.90
2022-08-08T00:42:07.674Z,15.90
2022-08-08T00:45:20.969Z,15.70
2022-08-08T00:48:42.806Z,15.50
2022-08-08T00:52:04.358Z,15.50
2022-08-08T00:55:16.626Z,15.50
2022-08-08T00:58:38.300Z,15.40
2022-08-08T01:01:38.305Z,15.30
2022-08-08T01:05:42.239Z,15.30
2022-08-08T01:09:35.390Z,15.30
2022-08-08T01:13:01.203Z,15.20
2022-08-08T01:16:16.925Z,14.90
2022-08-08T01:19:52.020Z,14.90
2022-08-08T01:23:00.323Z,14.90
2022-08-08T01:26:19.974Z,14.90
2022-08-08T01:29:35.463Z,14.90
2022-08-08T01:33:16.161Z,14.80
2022-08-08T01:36:58.200Z,14.50
2022-08-08T01:39:53.471Z,14.50
2022-08-08T01:42:36.290Z,14.60
2022-08-08T01:45:33.787Z,14.50
2022-08-08T01:48:30.379Z,14.60
2022-08-08T01:52:03.508Z,14.60
2022-08-08T01:55:26.119Z,14.60
2022-08-08T01:58:10.925Z,14.60
2022-08-08T02:00:44.421Z,14.60
2022-08-08T02:03:54.571Z,14.50
2022-08-08T02:06:46.267Z,14.50
2022-08-08T02:10:02.479Z,14.40
2022-08-08T02:12:30.666Z,14.40
2022-08-08T02:15:11.274Z,14.30
2022-08-08T02:17:54.749Z,14.40
2022-08-08T02:21:00.943Z,14.40
2022-08-08T02:23:32.030Z,14.30
2022-08-08T02:26:10.901Z,14.40
2022-08-08T02:29:00.074Z,14.40
2022-08-08T02:31:58.725Z,14.40
2022-08-08T02:35:07.476Z,14.30
2022-08-08T02:38:13.192Z,14.40
2022-08-08T02:40:57.909Z,14.30
2022-08-08T02:44:42.609Z,14.00
2022-08-08T02:47:25.786Z,13.90
2022-08-08T02:51:02.397Z,13.90
2022-08-08T02:54:13.621Z,13.90
2022-08-08T02:57:24.000Z,13.90
2022-08-08T03:00:31.982Z,13.80
2022-08-08T03:05:02.648Z,13.80
2022-08-08T03:07:41.457Z,13.80
2022-08-08T03:11:05.788Z,13.70
2022-08-08T03:16:01.857Z,13.70
2022-08-08T03:16:58.293Z,13.70
2022-08-08T03:20:13.401Z,13.70
2022-08-08T03:22:56.395Z,13.70
2022-08-08T03:25:34.070Z,13.70
2022-08-08T03:28:11.459Z,13.60
2022-08-08T03:30:49.071Z,13.50
2022-08-08T03:33:55.386Z,13.60
2022-08-08T03:36:16.027Z,13.60
2022-08-08T03:38:56.481Z,13.40
2022-08-08T03:42:26.931Z,13.20
2022-08-08T03:44:33.782Z,13.00
2022-08-08T03:47:14.308Z,12.70
2022-08-08T03:49:59.775Z,12.80
2022-08-08T03:52:35.768Z,12.90
2022-08-08T03:55:20.190Z,13.00
2022-08-08T03:58:35.414Z,12.90
2022-08-08T04:01:20.499Z,12.90
2022-08-08T04:03:57.574Z,12.90
2022-08-08T04:06:30.499Z,12.90
2022-08-08T04:09:10.539Z,12.90
2022-08-08T04:11:58.929Z,13.00
2022-08-08T04:14:37.708Z,13.00
2022-08-08T04:17:22.402Z,12.90
2022-08-08T04:19:57.591Z,12.70
2022-08-08T04:22:29.351Z,12.30
2022-08-08T04:24:58.459Z,12.20
2022-08-08T04:28:02.451Z,12.20
2022-08-08T04:30:19.708Z,12.30
2022-08-08T04:32:52.984Z,12.30
2022-08-08T04:35:24.316Z,12.40
2022-08-08T04:37:54.847Z,12.40
2022-08-08T04:40:28.094Z,12.40
2022-08-08T04:43:01.486Z,12.40
2022-08-08T04:45:35.247Z,12.50
2022-08-08T04:48:06.134Z,12.60
2022-08-08T04:50:40.084Z,12.70
2022-08-08T04:53:51.917Z,12.80
2022-08-08T04:56:02.036Z,12.80
2022-08-08T04:58:35.668Z,12.90
2022-08-08T05:01:09.103Z,12.80
2022-08-08T05:04:10.877Z,12.90
2022-08-08T05:06:34.018Z,12.90
2022-08-08T05:09:05.940Z,13.00
2022-08-08T05:11:39.020Z,13.00
2022-08-08T05:14:12.715Z,13.10
2022-08-08T05:16:53.003Z,13.10
2022-08-08T05:20:09.883Z,13.10
2022-08-08T05:22:17.483Z,13.20
2022-08-08T05:24:49.441Z,13.20
2022-08-08T05:27:20.669Z,13.30
2022-08-08T05:29:52.254Z,13.30
2022-08-08T05:32:27.310Z,13.30
2022-08-08T05:35:05.011Z,13.40
2022-08-08T05:37:53.182Z,13.40
2022-08-08T05:40:30.137Z,13.50
2022-08-08T05:43:39.978Z,13.50
2022-08-08T05:46:03.563Z,13.60
2022-08-08T05:48:35.990Z,13.70
2022-08-08T05:51:12.921Z,13.80
2022-08-08T05:53:55.969Z,13.80
2022-08-08T05:56:42.486Z,13.90
2022-08-08T06:00:00.823Z,13.90
2022-08-08T06:02:40.893Z,13.90
2022-08-08T06:05:33.725Z,14.00
2022-08-08T06:08:10.230Z,14.10
2022-08-08T06:10:59.422Z,14.30
2022-08-08T06:13:35.769Z,14.50
2022-08-08T06:16:13.713Z,14.60
2022-08-08T06:19:07.341Z,14.80
2022-08-08T06:21:51.911Z,14.90
2022-08-08T06:24:35.982Z,15.10
2022-08-08T06:27:09.750Z,15.20
2022-08-08T06:29:59.968Z,15.40
2022-08-08T06:32:31.760Z,15.60
2022-08-08T06:36:04.549Z,15.70
2022-08-08T06:38:09.442Z,15.90
2022-08-08T06:40:48.678Z,16.10
2022-08-08T06:43:28.402Z,16.20
2022-08-08T06:46:04.614Z,16.30
2022-08-08T06:48:38.442Z,16.50
2022-08-08T06:51:11.250Z,16.60
2022-08-08T06:53:50.373Z,16.70
2022-08-08T06:56:25.235Z,16.90
2022-08-08T06:58:54.771Z,17.00
2022-08-08T07:02:17.066Z,17.10
2022-08-08T07:04:37.447Z,17.30
2022-08-08T07:07:15.272Z,17.50
2022-08-08T07:10:00.319Z,17.60
2022-08-08T07:12:42.961Z,17.70
2022-08-08T07:15:40.841Z,17.90
2022-08-08T07:18:34.676Z,18.10
2022-08-08T07:21:05.432Z,18.30
2022-08-08T07:24:03.235Z,18.50
2022-08-08T07:26:41.592Z,18.70
2022-08-08T07:29:54.645Z,18.80
2022-08-08T07:32:00.539Z,18.90
2022-08-08T07:34:32.430Z,19.10
2022-08-08T07:37:12.180Z,19.30
2022-08-08T07:39:57.896Z,19.50
2022-08-08T07:42:34.417Z,19.70
2022-08-08T07:45:06.782Z,19.80
2022-08-08T07:47:39.882Z,20.00
2022-08-08T07:50:23.374Z,20.20
2022-08-08T07:52:58.081Z,20.30
2022-08-08T07:55:30.405Z,20.50
2022-08-08T07:58:17.280Z,20.70
2022-08-08T08:00:52.566Z,20.80
2022-08-08T08:03:43.487Z,21.10
2022-08-08T08:06:16.504Z,21.30
2022-08-08T08:08:55.118Z,21.50
2022-08-08T08:11:51.268Z,21.70
2022-08-08T08:14:41.191Z,21.90
2022-08-08T08:17:15.214Z,22.10
2022-08-08T08:19:46.570Z,22.30
2022-08-08T08:22:31.786Z,22.60
2022-08-08T08:25:08.095Z,22.70
2022-08-08T08:27:47.071Z,22.90
2022-08-08T08:30:16.235Z,23.10
2022-08-08T08:32:51.184Z,23.20
2022-08-08T08:35:29.366Z,23.30
2022-08-08T08:38:17.876Z,23.50
2022-08-08T08:40:54.774Z,23.70
2022-08-08T08:43:26.637Z,23.80
2022-08-08T08:45:57.435Z,24.00
2022-08-08T08:48:26.522Z,24.00
2022-08-08T08:51:01.749Z,24.10
2022-08-08T08:53:55.947Z,24.20
2022-08-08T08:56:35.850Z,24.40
2022-08-08T08:59:15.407Z,24.40
2022-08-08T09:01:52.502Z,24.50
2022-08-08T09:04:39.608Z,24.70
2022-08-08T09:07:39.593Z,24.90
2022-08-08T09:10:17.294Z,24.90
2022-08-08T09:12:47.663Z,25.10
2022-08-08T09:15:37.217Z,25.20
2022-08-08T09:18:09.560Z,25.30
2022-08-08T09:22:00.531Z,25.40
2022-08-08T09:23:33.562Z,25.50
2022-08-08T09:26:17.048Z,25.40
2022-08-08T09:28:46.071Z,25.50
2022-08-08T09:31:56.643Z,25.60
2022-08-08T09:34:34.261Z,25.70
2022-08-08T09:37:39.613Z,25.90
2022-08-08T09:40:11.004Z,26.00
2022-08-08T09:42:44.295Z,26.20
2022-08-08T09:46:01.736Z,26.40
2022-08-08T09:48:21.846Z,26.50
2022-08-08T09:50:58.202Z,26.50
2022-08-08T09:53:54.770Z,26.50
2022-08-08T09:56:27.768Z,26.50
2022-08-08T09:59:15.285Z,26.40
2022-08-08T10:01:58.526Z,26.10
2022-08-08T10:04:41.649Z,26.30
2022-08-08T10:07:13.951Z,26.50
2022-08-08T10:09:59.229Z,26.70
2022-08-08T10:12:38.603Z,26.70
2022-08-08T10:15:24.389Z,26.90
2022-08-08T10:18:06.730Z,26.90
2022-08-08T10:20:57.912Z,26.80
2022-08-08T10:23:44.122Z,27.00
2022-08-08T10:26:25.711Z,27.00
2022-08-08T10:29:05.475Z,27.20
2022-08-08T10:31:55.930Z,27.30
2022-08-08T10:34:28.816Z,27.40
2022-08-08T10:37:00.105Z,27.20
2022-08-08T10:39:43.069Z,27.40
2022-08-08T10:42:22.879Z,27.60
2022-08-08T10:45:02.583Z,27.30
2022-08-08T10:47:44.003Z,27.40
2022-08-08T10:50:16.342Z,27.40
2022-08-08T10:52:45.783Z,27.60
2022-08-08T10:55:41.610Z,27.70
2022-08-08T10:58:08.728Z,27.90
2022-08-08T11:00:53.443Z,27.90
2022-08-08T11:04:00.338Z,28.10
2022-08-08T11:06:34.896Z,28.20
2022-08-08T11:09:15.420Z,28.40
2022-08-08T11:12:06.466Z,28.60
2022-08-08T11:14:51.488Z,28.80
2022-08-08T11:17:59.765Z,28.50
2022-08-08T11:20:17.809Z,28.60
2022-08-08T11:22:52.867Z,28.60
2022-08-08T11:25:52.874Z,28.60
2022-08-08T11:28:19.017Z,28.80
2022-08-08T11:30:52.900Z,28.60
2022-08-08T11:33:51.000Z,28.70
2022-08-08T11:36:15.297Z,28.90
2022-08-08T11:38:54.602Z,29.10
2022-08-08T11:41:27.976Z,29.30
2022-08-08T11:44:01.115Z,29.40
2022-08-08T11:46:31.683Z,29.70
2022-08-08T11:49:05.158Z,29.80
2022-08-08T11:51:40.255Z,29.90
2022-08-08T11:54:31.728Z,29.70
2022-08-08T11:57:16.939Z,29.60
2022-08-08T12:00:02.003Z,29.50
2022-08-08T12:02:51.909Z,29.50
2022-08-08T12:05:22.687Z,29.20
2022-08-08T12:07:53.892Z,29.40
2022-08-08T12:10:26.292Z,29.50
2022-08-08T12:13:05.486Z,29.80
2022-08-08T12:15:39.988Z,30.00
2022-08-08T12:18:20.663Z,30.00
2022-08-08T12:20:53.270Z,30.00
2022-08-08T12:23:43.662Z,30.10
2022-08-08T12:26:28.040Z,30.30
2022-08-08T12:29:40.345Z,30.20
2022-08-08T12:32:13.507Z,30.10
2022-08-08T12:34:52.870Z,30.00
2022-08-08T12:37:40.608Z,29.70
2022-08-08T12:40:24.189Z,30.20
2022-08-08T12:42:53.851Z,30.40
2022-08-08T12:45:59.228Z,30.40
2022-08-08T12:48:36.567Z,30.20
2022-08-08T12:51:11.228Z,30.20
2022-08-08T12:53:58.943Z,30.40
2022-08-08T12:56:34.937Z,30.50
2022-08-08T12:59:15.029Z,30.50
2022-08-08T13:01:53.063Z,30.50
2022-08-08T13:04:25.086Z,30.50
2022-08-08T13:07:01.227Z,30.50
2022-08-08T13:10:01.901Z,30.60
2022-08-08T13:12:30.039Z,30.70
2022-08-08T13:15:03.094Z,30.70
2022-08-08T13:18:08.974Z,30.50
2022-08-08T13:20:26.055Z,30.40
2022-08-08T13:23:31.203Z,30.40
2022-08-08T13:25:51.219Z,30.20
2022-08-08T13:28:32.761Z,30.30
2022-08-08T13:31:04.113Z,30.30
2022-08-08T13:33:42.140Z,30.20
2022-08-08T13:36:12.124Z,30.10
2022-08-08T13:38:41.650Z,30.00
2022-08-08T13:41:16.178Z,29.20
2022-08-08T13:43:50.687Z,29.30
2022-08-08T13:46:27.249Z,29.40
2022-08-08T13:49:12.056Z,29.50
2022-08-08T13:52:00.781Z,29.60
2022-08-08T13:54:31.764Z,29.70
2022-08-08T13:57:12.621Z,29.70
2022-08-08T13:59:48.747Z,29.70
2022-08-08T14:02:23.147Z,29.60
2022-08-08T14:05:20.495Z,29.60
2022-08-08T14:07:56.989Z,29.50
2022-08-08T14:10:33.614Z,29.50
2022-08-08T14:13:30.722Z,29.40
2022-08-08T14:16:03.585Z,29.50
2022-08-08T14:18:36.915Z,29.50
2022-08-08T14:21:22.699Z,29.40
2022-08-08T14:24:07.860Z,29.20
2022-08-08T14:26:42.999Z,28.90
2022-08-08T14:29:27.978Z,29.00
2022-08-08T14:32:10.032Z,29.00
2022-08-08T14:34:42.648Z,29.00
2022-08-08T14:37:13.088Z,28.90
2022-08-08T14:39:48.824Z,28.80
2022-08-08T14:42:26.865Z,28.80
2022-08-08T14:44:58.038Z,28.80
2022-08-08T14:47:30.379Z,28.80
2022-08-08T14:50:15.091Z,28.80
2022-08-08T14:52:58.921Z,28.90
2022-08-08T14:55:41.170Z,28.80
2022-08-08T14:58:11.910Z,28.80
2022-08-08T15:00:46.423Z,28.70
2022-08-08T15:03:17.233Z,28.80
2022-08-08T15:05:53.957Z,28.80
2022-08-08T15:08:34.565Z,28.70
2022-08-08T15:11:10.526Z,28.60
2022-08-08T15:14:00.876Z,28.50
2022-08-08T15:16:34.546Z,28.50
2022-08-08T15:19:04.300Z,28.60
2022-08-08T15:21:32.555Z,28.70
2022-08-08T15:24:02.259Z,28.70
2022-08-08T15:26:31.190Z,28.70
2022-08-08T15:28:59.266Z,28.70
2022-08-08T15:32:03.141Z,28.70
2022-08-08T15:34:29.747Z,28.70
2022-08-08T15:37:03.291Z,28.70
2022-08-08T15:39:39.072Z,28.70
2022-08-08T15:42:18.206Z,28.60
2022-08-08T15:44:58.482Z,28.60
2022-08-08T15:47:26.753Z,28.50
2022-08-08T15:49:54.983Z,28.40
2022-08-08T15:52:24.887Z,28.30
2022-08-08T15:54:55.027Z,28.20
2022-08-08T15:57:23.556Z,28.10
2022-08-08T16:00:25.415Z,28.10
2022-08-08T16:02:50.641Z,28.20
2022-08-08T16:05:23.782Z,28.20
2022-08-08T16:07:54.225Z,28.20
2022-08-08T16:13:08.886Z,28.10
2022-08-08T16:13:35.039Z,28.00
2022-08-08T16:16:13.161Z,27.90
2022-08-08T16:18:56.745Z,27.90
2022-08-08T16:21:29.051Z,27.80
2022-08-08T16:23:58.446Z,27.60
2022-08-08T16:26:32.878Z,27.60
2022-08-08T16:29:08.060Z,27.50
2022-08-08T16:31:42.096Z,27.50
2022-08-08T16:34:18.506Z,27.40
2022-08-08T16:36:50.524Z,27.30
2022-08-08T16:39:49.160Z,27.30
2022-08-08T16:42:17.625Z,27.20
2022-08-08T16:44:54.690Z,27.20
2022-08-08T16:47:39.986Z,27.10
2022-08-08T16:50:14.002Z,27.10
2022-08-08T16:55:04.907Z,27.20
2022-08-08T16:55:53.102Z,27.40
2022-08-08T16:58:25.843Z,27.90
2022-08-08T17:00:58.835Z,27.70
2022-08-08T17:03:59.414Z,27.50
2022-08-08T17:06:36.797Z,27.30
2022-08-08T17:09:03.862Z,27.20
2022-08-08T17:11:39.239Z,27.00
2022-08-08T17:14:19.921Z,26.90
2022-08-08T17:16:58.411Z,26.80
2022-08-08T17:19:28.785Z,26.70
2022-08-08T17:21:57.559Z,26.70
2022-08-08T17:24:30.798Z,26.60
2022-08-08T17:27:01.359Z,26.50
2022-08-08T17:29:36.269Z,26.50
2022-08-08T17:32:07.886Z,26.40
2022-08-08T17:35:44.434Z,26.40
2022-08-08T17:37:25.926Z,26.40
2022-08-08T17:40:05.980Z,26.30
2022-08-08T17:42:47.384Z,26.30
2022-08-08T17:45:22.455Z,26.20
2022-08-08T17:47:53.827Z,26.10
2022-08-08T17:50:23.552Z,26.10
2022-08-08T17:52:52.056Z,26.00
2022-08-08T17:56:06.191Z,25.90
2022-08-08T17:58:08.988Z,25.90
2022-08-08T18:00:39.003Z,25.80
2022-08-08T18:03:13.850Z,25.70
2022-08-08T18:05:49.898Z,25.70
2022-08-08T18:08:37.877Z,25.60
2022-08-08T18:11:15.153Z,25.60
2022-08-08T18:13:45.748Z,25.60
2022-08-08T18:16:20.473Z,25.50
2022-08-08T18:18:56.621Z,25.50
2022-08-08T18:21:59.147Z,25.40
2022-08-08T18:24:21.373Z,25.40
2022-08-08T18:26:54.345Z,25.40
2022-08-08T18:29:27.230Z,25.30
2022-08-08T18:32:05.701Z,25.20
2022-08-08T18:34:36.615Z,25.20
2022-08-08T18:37:09.284Z,25.10
2022-08-08T18:39:41.212Z,25.10
2022-08-08T18:42:15.888Z,25.10
2022-08-08T18:44:55.619Z,25.00
2022-08-08T18:47:28.037Z,25.00
2022-08-08T18:50:00.314Z,24.90
2022-08-08T18:52:30.829Z,24.80
2022-08-08T18:55:09.448Z,24.80
2022-08-08T18:57:42.167Z,24.70
2022-08-08T19:00:16.838Z,24.70
2022-08-08T19:02:55.229Z,24.70
2022-08-08T19:05:32.039Z,24.60
2022-08-08T19:08:25.594Z,24.60
2022-08-08T19:10:58.865Z,24.60
2022-08-08T19:13:53.685Z,24.50
2022-08-08T19:16:19.498Z,24.40
2022-08-08T19:18:56.114Z,24.40
2022-08-08T19:21:32.980Z,24.30
2022-08-08T19:24:05.767Z,24.30
2022-08-08T19:26:37.463Z,24.20
2022-08-08T19:29:06.484Z,24.20
2022-08-08T19:31:36.041Z,24.10
2022-08-08T19:34:36.593Z,24.10
2022-08-08T19:36:58.975Z,24.10
2022-08-08T19:39:35.037Z,24.00
2022-08-08T19:42:05.292Z,24.00
2022-08-08T19:44:45.482Z,23.90
2022-08-08T19:47:14.177Z,23.90
2022-08-08T19:50:00.274Z,23.80
2022-08-08T19:52:34.796Z,23.80
2022-08-08T19:55:05.964Z,23.70
2022-08-08T19:57:35.533Z,23.60
2022-08-08T20:00:11.514Z,23.60
2022-08-08T20:02:56.247Z,23.50
2022-08-08T20:06:14.743Z,23.40
2022-08-08T20:08:37.483Z,23.40
2022-08-08T20:11:03.101Z,23.30
2022-08-08T20:14:31.515Z,23.20
2022-08-08T20:16:20.060Z,23.20
2022-08-08T20:18:53.114Z,23.10
2022-08-08T20:21:25.804Z,23.00
2022-08-08T20:23:57.725Z,23.00
2022-08-08T20:26:33.364Z,22.90
2022-08-08T20:29:03.278Z,22.80
2022-08-08T20:32:02.463Z,22.80
2022-08-08T20:34:30.573Z,22.70
2022-08-08T20:37:02.435Z,22.60
2022-08-08T20:39:39.484Z,22.50
2022-08-08T20:42:28.441Z,22.30
2022-08-08T20:44:59.198Z,22.10
2022-08-08T20:47:35.859Z,21.90
2022-08-08T20:50:10.104Z,21.70
2022-08-08T20:52:40.635Z,21.60
2022-08-08T20:55:25.620Z,21.30
2022-08-08T20:57:54.102Z,21.30
2022-08-08T21:00:27.451Z,21.30
2022-08-08T21:02:55.787Z,21.40
2022-08-08T21:05:24.009Z,21.50
2022-08-08T21:08:37.305Z,21.40
2022-08-08T21:10:50.385Z,21.30
2022-08-08T21:13:18.330Z,21.10
2022-08-08T21:16:04.677Z,20.90
2022-08-08T21:18:34.442Z,20.70
2022-08-08T21:21:02.955Z,20.50
2022-08-08T21:24:01.857Z,20.50
2022-08-08T21:26:26.943Z,20.50
2022-08-08T21:28:55.999Z,20.40
2022-08-08T21:31:58.516Z,20.10
2022-08-08T21:34:18.791Z,20.00
2022-08-08T21:36:48.787Z,20.00
2022-08-08T21:39:19.492Z,19.90
2022-08-08T21:41:53.744Z,19.90
2022-08-08T21:44:27.139Z,20.00
2022-08-08T21:48:05.360Z,19.80
2022-08-08T21:49:43.083Z,19.80
2022-08-08T21:54:36.379Z,19.70
2022-08-08T21:55:04.573Z,19.60
2022-08-08T21:58:04.123Z,19.60
2022-08-08T22:00:37.318Z,19.50
2022-08-08T22:03:10.959Z,19.40
2022-08-08T22:05:43.522Z,19.30
2022-08-08T22:08:12.154Z,19.30
2022-08-08T22:10:45.140Z,19.20
2022-08-08T22:13:17.182Z,19.20
2022-08-08T22:15:59.088Z,19.10
2022-08-08T22:18:30.513Z,19.20
2022-08-08T22:21:10.877Z,19.30
2022-08-08T22:23:51.556Z,19.00
2022-08-08T22:26:28.844Z,18.80
2022-08-08T22:29:04.684Z,18.80
2022-08-08T22:31:43.879Z,18.80
2022-08-08T22:34:27.114Z,18.70
2022-08-08T22:36:55.157Z,18.60
2022-08-08T22:39:23.101Z,18.70
2022-08-08T22:42:10.167Z,18.60
2022-08-08T22:44:38.092Z,18.50
2022-08-08T22:47:17.720Z,18.40
2022-08-08T22:49:53.655Z,18.30
2022-08-08T22:52:25.980Z,18.40
2022-08-08T22:54:58.942Z,18.10
2022-08-08T22:57:44.005Z,18.10
2022-08-08T23:00:18.570Z,18.10
2022-08-08T23:02:50.356Z,18.20
2022-08-08T23:05:21.550Z,18.00
2022-08-08T23:07:56.899Z,17.90
2022-08-08T23:10:26.894Z,17.80
2022-08-08T23:12:56.869Z,17.70
2022-08-08T23:16:38.242Z,17.70
2022-08-08T23:18:13.971Z,17.80
2022-08-08T23:20:43.935Z,17.80
2022-08-08T23:23:13.500Z,17.70
2022-08-08T23:25:48.074Z,17.60
2022-08-08T23:28:18.935Z,17.70
2022-08-08T23:30:47.989Z,17.70
2022-08-08T23:33:20.874Z,17.70
2022-08-08T23:36:08.134Z,17.60
2022-08-08T23:38:44.711Z,17.50
2022-08-08T23:41:24.885Z,17.50
2022-08-08T23:43:56.658Z,17.50
2022-08-08T23:49:06.765Z,17.50
2022-08-08T23:49:18.224Z,17.40
2022-08-08T23:52:04.846Z,17.30
2022-08-08T23:54:41.500Z,17.40
2022-08-08T23:57:26.930Z,17.40
